Time;durP1;ratioP1;P1;durP2;ratioP2;P2;SDS_P1;SDS_P2;PMS_P1;PMS_P2;Temp;Humidity;BMP_temperature;BMP_pressure;BME280_temperature;BME280_humidity;BME280_pressure;Samples;Min_cycle;Max_cycle;Signal;HPM_P1;HPM_P2
2022/11/12 00:00:19;;;;;;;25.43;18.60;;;;;;;-143.84;100.00;45226.16;5133534;27;20433;-73
2022/11/12 00:02:46;;;;;;;30.07;20.37;;;;;;;-143.84;100.00;45241.41;5132512;27;20944;-72
2022/11/12 00:05:14;;;;;;;31.37;17.80;;;;;;;-143.84;100.00;45229.97;5132469;27;20873;-72
2022/11/12 00:07:41;;;;;;;28.73;19.50;;;;;;;-143.84;100.00;45231.88;5131649;27;20438;-73
2022/11/12 00:10:09;;;;;;;27.80;18.90;;;;;;;-143.84;100.00;45218.53;5132658;27;20438;-76
2022/11/12 00:12:36;;;;;;;28.73;19.47;;;;;;;-143.84;100.00;45262.34;5132751;27;20450;-75
2022/11/12 00:15:04;;;;;;;24.90;18.13;;;;;;;-143.84;100.00;45231.88;5132798;27;20454;-72
2022/11/12 00:17:32;;;;;;;25.90;18.30;;;;;;;-143.84;100.00;45229.97;5132529;27;20435;-70
2022/11/12 00:19:59;;;;;;;30.60;19.23;;;;;;;-143.84;100.00;45237.59;5132500;27;20578;-72
2022/11/12 00:22:27;;;;;;;29.23;19.50;;;;;;;-143.84;100.00;45220.44;5132136;27;20438;-72
2022/11/12 00:24:54;;;;;;;24.43;19.20;;;;;;;-143.84;100.00;45229.97;5132991;27;20833;-75
2022/11/12 00:27:21;;;;;;;24.73;19.07;;;;;;;-143.84;100.00;45239.50;5133393;27;20431;-76
2022/11/12 00:29:48;;;;;;;24.30;18.33;;;;;;;-143.84;100.00;45224.25;5133338;27;20993;-76
2022/11/12 00:32:15;;;;;;;28.67;18.50;;;;;;;-143.84;100.00;45231.88;5133060;27;20458;-76
2022/11/12 00:34:44;;;;;;;26.07;18.77;;;;;;;-143.84;100.00;45205.22;5112370;28;20467;-73
2022/11/12 00:37:11;;;;;;;28.20;17.07;;;;;;;-143.84;100.00;45237.59;5111316;28;20500;-73
2022/11/12 00:39:38;;;;;;;25.07;17.27;;;;;;;-143.84;100.00;45209.03;5111378;28;20462;-70
2022/11/12 00:42:06;;;;;;;29.47;17.70;;;;;;;-143.84;100.00;45209.03;5111744;28;20524;-71
2022/11/12 00:44:33;;;;;;;25.20;19.70;;;;;;;-143.84;100.00;45245.19;5110830;28;21026;-70
2022/11/12 00:47:00;;;;;;;25.50;17.90;;;;;;;-143.84;100.00;45212.84;5111107;28;20496;-72
2022/11/12 00:49:27;;;;;;;31.27;20.70;;;;;;;-143.84;100.00;45247.09;5111023;28;20429;-75
2022/11/12 00:51:55;;;;;;;24.50;15.73;;;;;;;-143.84;100.00;45228.06;5111980;28;20435;-76
2022/11/12 00:54:22;;;;;;;26.00;17.10;;;;;;;-143.84;100.00;45233.78;5111290;28;20431;-76
2022/11/12 00:56:50;;;;;;;23.50;17.17;;;;;;;-143.84;100.00;45239.50;5111458;28;20477;-73
2022/11/12 00:59:17;;;;;;;24.83;17.37;;;;;;;-143.84;100.00;45229.97;5111395;28;20451;-76
2022/11/12 01:01:44;;;;;;;28.00;18.47;;;;;;;-143.84;100.00;45247.09;5110768;28;20446;-77
2022/11/12 01:04:11;;;;;;;25.93;19.10;;;;;;;-143.84;100.00;45233.78;5110827;28;20481;-72
2022/11/12 01:06:39;;;;;;;30.00;19.80;;;;;;;-143.84;100.00;45218.53;5110362;28;20450;-72
2022/11/12 01:09:08;;;;;;;35.17;19.63;;;;;;;-143.84;100.00;45250.91;5110302;28;20476;-72
2022/11/12 01:11:36;;;;;;;34.37;19.37;;;;;;;-143.84;100.00;45224.25;5109933;28;20439;-73
2022/11/12 01:14:05;;;;;;;28.90;21.10;;;;;;;-143.84;100.00;45243.31;5110344;28;20485;-72
2022/11/12 01:16:36;;;;;;;34.73;20.80;;;;;;;-143.84;100.00;45229.97;5110662;28;20434;-76
2022/11/12 01:19:07;;;;;;;30.83;20.00;;;;;;;-143.84;100.00;45231.88;5111228;28;20865;-72
2022/11/12 01:21:38;;;;;;;39.17;20.57;;;;;;;-143.84;100.00;45249.00;5110779;28;20820;-70
2022/11/12 01:24:06;;;;;;;30.00;19.43;;;;;;;-143.84;100.00;45229.97;5110762;28;20528;-70
2022/11/12 01:26:35;;;;;;;27.90;18.43;;;;;;;-143.84;100.00;45233.78;5110433;28;20994;-71
2022/11/12 01:29:03;;;;;;;26.20;19.60;;;;;;;-143.84;100.00;45210.94;5110393;28;20443;-72
2022/11/12 01:31:32;;;;;;;28.57;19.17;;;;;;;-143.84;100.00;45226.16;5110425;28;20530;-72
2022/11/12 01:34:02;;;;;;;28.03;18.57;;;;;;;-143.84;100.00;45222.34;5110011;28;20630;-76
2022/11/12 01:36:33;;;;;;;29.47;17.97;;;;;;;-143.84;100.00;45210.94;5110219;28;20552;-71
2022/11/12 01:39:00;;;;;;;28.00;17.90;;;;;;;-143.84;100.00;45231.88;5109718;28;20443;-70
2022/11/12 01:41:31;;;;;;;27.30;18.10;;;;;;;-143.84;100.00;45216.63;5110109;28;20976;-76
2022/11/12 01:44:11;;;;;;;24.20;17.53;;;;;;;-143.84;100.00;45231.88;5110119;28;20893;-73
2022/11/12 01:46:46;;;;;;;31.27;18.37;;;;;;;-143.84;100.00;45205.22;5110925;28;20442;-70
2022/11/12 01:49:19;;;;;;;24.57;17.10;;;;;;;-143.84;100.00;45235.69;5110332;28;20507;-76
2022/11/12 01:51:50;;;;;;;21.73;16.00;;;;;;;-143.84;100.00;45231.88;5110194;27;20448;-73
2022/11/12 01:54:20;;;;;;;23.87;17.20;;;;;;;-143.84;100.00;45243.31;5104917;28;20563;-72
2022/11/12 01:56:50;;;;;;;26.40;17.00;;;;;;;-143.84;100.00;45243.31;5109504;28;20467;-72
2022/11/12 01:59:22;;;;;;;26.37;17.83;;;;;;;-143.84;100.00;45228.06;5109873;28;20914;-72
2022/11/12 02:01:49;;;;;;;22.17;16.63;;;;;;;-143.84;100.00;45210.94;5109885;28;21044;-71
2022/11/12 02:04:17;;;;;;;23.67;17.00;;;;;;;-143.84;100.00;45216.63;5110832;28;20481;-76
2022/11/12 02:06:46;;;;;;;21.97;14.20;;;;;;;-143.84;100.00;45218.53;5125670;27;20924;-72
2022/11/12 02:09:14;;;;;;;23.33;15.83;;;;;;;-143.84;100.00;45235.69;5130297;27;20451;-72
2022/11/12 02:11:41;;;;;;;21.97;14.37;;;;;;;-143.84;100.00;45229.97;5130478;27;20430;-72
2022/11/12 02:14:07;;;;;;;23.67;17.27;;;;;;;-143.84;100.00;45241.41;5130589;27;20454;-76
2022/11/12 02:16:38;;;;;;;22.17;16.00;;;;;;;-143.84;100.00;45250.91;5130300;27;20452;-70
2022/11/12 02:19:08;;;;;;;24.43;18.00;;;;;;;-143.84;100.00;45237.59;5130342;27;20797;-76
2022/11/12 02:21:37;;;;;;;23.97;16.77;;;;;;;-143.84;100.00;45249.00;5128992;27;21035;-75
2022/11/12 02:24:07;;;;;;;22.80;15.43;;;;;;;-143.84;100.00;45231.88;5130857;27;20473;-76
2022/11/12 02:26:38;;;;;;;25.10;15.20;;;;;;;-143.84;100.00;45229.97;5130824;27;20510;-76
2022/11/12 02:29:05;;;;;;;24.03;16.87;;;;;;;-143.84;100.00;45241.41;5130905;27;20452;-75
2022/11/12 02:31:32;;;;;;;31.97;17.53;;;;;;;-143.84;100.00;45228.06;5130136;27;20810;-72
2022/11/12 02:33:59;;;;;;;26.20;17.43;;;;;;;-143.84;100.00;45224.25;5129576;27;20481;-72
2022/11/12 02:36:27;;;;;;;23.60;16.50;;;;;;;-143.84;100.00;45224.25;5111183;27;20500;-76
2022/11/12 02:38:56;;;;;;;26.43;18.37;;;;;;;-143.84;100.00;45235.69;5110199;28;20435;-76
2022/11/12 02:41:24;;;;;;;36.83;18.00;;;;;;;-143.84;100.00;45245.19;5109697;28;20497;-76
2022/11/12 02:43:51;;;;;;;32.60;20.00;;;;;;;-143.84;100.00;45220.44;5109394;28;20474;-76
2022/11/12 02:46:18;;;;;;;28.07;20.00;;;;;;;-143.84;100.00;45210.94;5109300;28;21022;-72
2022/11/12 02:48:45;;;;;;;30.43;19.03;;;;;;;-143.84;100.00;45199.50;5109586;28;20443;-70
2022/11/12 02:51:12;;;;;;;32.77;19.17;;;;;;;-143.84;100.00;45224.25;5109278;28;21121;-72
2022/11/12 02:53:39;;;;;;;34.13;21.40;;;;;;;-143.84;100.00;45216.63;5109040;28;20977;-73
2022/11/12 02:56:08;;;;;;;33.27;19.60;;;;;;;-143.84;100.00;45243.31;5109127;28;20450;-76
2022/11/12 02:58:35;;;;;;;29.30;19.33;;;;;;;-143.84;100.00;45252.81;5109332;28;20500;-73
2022/11/12 03:01:02;;;;;;;33.07;18.90;;;;;;;-143.84;100.00;45266.16;5109440;28;20496;-73
2022/11/12 03:03:29;;;;;;;26.43;18.70;;;;;;;-143.84;100.00;45228.06;5108878;28;20511;-73
2022/11/12 03:05:58;;;;;;;31.23;20.20;;;;;;;-143.84;100.00;45222.34;5109281;28;20435;-72
2022/11/12 03:08:26;;;;;;;29.73;17.90;;;;;;;-143.84;100.00;45214.72;5113344;28;20500;-75
2022/11/12 03:10:54;;;;;;;28.07;16.80;;;;;;;-143.84;100.00;45201.41;5113216;28;20439;-70
2022/11/12 03:13:23;;;;;;;29.13;18.20;;;;;;;-143.84;100.00;45220.44;5114048;28;20450;-73
2022/11/12 03:15:50;;;;;;;28.40;18.80;;;;;;;-143.84;100.00;45237.59;5113478;28;20922;-76
2022/11/12 03:18:17;;;;;;;24.73;17.10;;;;;;;-143.84;100.00;45220.44;5113605;28;20435;-75
2022/11/12 03:20:44;;;;;;;26.47;16.80;;;;;;;-143.84;100.00;45241.41;5113600;28;20850;-75
2022/11/12 03:23:11;;;;;;;27.60;16.80;;;;;;;-143.84;100.00;45237.59;5113346;28;20446;-73
2022/11/12 03:25:38;;;;;;;19.53;15.30;;;;;;;-143.84;100.00;45231.88;5112483;28;20446;-73
2022/11/12 03:28:08;;;;;;;17.80;14.93;;;;;;;-143.84;100.00;45216.63;5112081;28;20446;-73
2022/11/12 03:30:37;;;;;;;19.63;14.33;;;;;;;-143.84;100.00;45222.34;5112489;28;21236;-73
2022/11/12 03:33:05;;;;;;;23.77;15.67;;;;;;;-143.84;100.00;45212.84;5112255;28;20482;-73
2022/11/12 03:35:33;;;;;;;20.20;15.03;;;;;;;-143.84;100.00;45233.78;5112633;28;20453;-73
2022/11/12 03:38:01;;;;;;;23.57;15.90;;;;;;;-143.84;100.00;45231.88;5112426;28;20444;-73
2022/11/12 03:40:29;;;;;;;22.17;16.67;;;;;;;-143.84;100.00;45216.63;5112481;28;20511;-72
2022/11/12 03:42:56;;;;;;;23.13;15.27;;;;;;;-143.84;100.00;45250.91;5112261;28;20435;-73
2022/11/12 03:45:26;;;;;;;26.53;17.57;;;;;;;-143.84;100.00;45231.88;5111780;28;20536;-73
2022/11/12 03:47:56;;;;;;;26.07;16.40;;;;;;;-143.84;100.00;45229.97;5112238;28;20432;-72
2022/11/12 03:50:25;;;;;;;23.73;16.70;;;;;;;-143.84;100.00;45254.72;5112387;28;20454;-73
2022/11/12 03:52:54;;;;;;;25.23;14.27;;;;;;;-143.84;100.00;45222.34;5112632;28;20446;-72
2022/11/12 03:55:22;;;;;;;24.73;17.10;;;;;;;-143.84;100.00;45212.84;5112069;28;20528;-73
2022/11/12 03:57:50;;;;;;;25.40;16.43;;;;;;;-143.84;100.00;45237.59;5112088;28;20453;-73
2022/11/12 04:00:18;;;;;;;24.40;15.40;;;;;;;-143.84;100.00;45216.63;5112070;28;20496;-73
2022/11/12 04:02:45;;;;;;;25.23;14.27;;;;;;;-143.84;100.00;45237.59;5111899;28;20507;-72
2022/11/12 04:10:44;;;;;;;26.20;16.80;;;;;;;-143.84;100.00;45222.34;5112041;28;20447;-72
2022/11/12 04:13:30;;;;;;;28.00;18.20;;;;;;;-143.84;100.00;45247.09;5112004;28;20508;-73
2022/11/12 04:21:50;;;;;;;26.43;16.53;;;;;;;-143.84;100.00;45247.09;5111987;28;20450;-73
2022/11/12 04:27:04;;;;;;;22.53;15.80;;;;;;;-143.84;100.00;45249.00;5111677;28;20932;-72
2022/11/12 04:32:15;;;;;;;25.57;17.83;;;;;;;-143.84;100.00;45233.78;5110705;28;20481;-72
2022/11/12 04:34:43;;;;;;;28.33;17.60;;;;;;;-143.84;100.00;45228.06;5110560;28;20900;-72
2022/11/12 04:37:11;;;;;;;27.17;18.30;;;;;;;-143.84;100.00;45218.53;5110809;28;20450;-73
2022/11/12 04:39:39;;;;;;;26.97;17.63;;;;;;;-143.84;100.00;45237.59;5110933;28;20850;-73
2022/11/12 04:45:02;;;;;;;22.33;16.50;;;;;;;-143.84;100.00;45229.97;5090920;28;20529;-73
2022/11/12 04:47:32;;;;;;;26.10;16.87;;;;;;;-143.84;100.00;45228.06;5091137;28;20443;-73
2022/11/12 04:50:00;;;;;;;26.50;18.30;;;;;;;-143.84;100.00;45239.50;5090721;28;20497;-72
2022/11/12 04:52:30;;;;;;;27.50;17.33;;;;;;;-143.84;100.00;45220.44;5090707;28;21065;-73
2022/11/12 04:54:57;;;;;;;33.73;19.00;;;;;;;-143.84;100.00;45224.25;5090919;28;20436;-73
2022/11/12 04:57:25;;;;;;;22.53;17.47;;;;;;;-143.84;100.00;45228.06;5090874;28;20444;-72
2022/11/12 04:59:52;;;;;;;25.20;18.23;;;;;;;-143.84;100.00;45245.19;5090941;28;20934;-73
2022/11/12 05:02:19;;;;;;;31.43;18.70;;;;;;;-143.84;100.00;45235.69;5090257;28;20458;-73
2022/11/12 05:04:46;;;;;;;22.80;16.90;;;;;;;-143.84;100.00;45216.63;5089964;28;20484;-73
2022/11/12 05:07:14;;;;;;;29.20;17.70;;;;;;;-143.84;100.00;45222.34;5090492;28;20496;-71
2022/11/12 05:09:42;;;;;;;26.23;16.40;;;;;;;-143.84;100.00;45239.50;5090349;28;20456;-71
2022/11/12 05:12:10;;;;;;;23.77;16.93;;;;;;;-143.84;100.00;45254.72;5090681;28;21120;-71
2022/11/12 05:14:37;;;;;;;27.80;18.73;;;;;;;-143.84;100.00;45214.72;5090306;28;20485;-72
2022/11/12 05:17:04;;;;;;;25.83;17.77;;;;;;;-143.84;100.00;45220.44;5090274;28;20501;-72
2022/11/12 05:19:33;;;;;;;27.43;18.77;;;;;;;-143.84;100.00;45218.53;5090119;28;21125;-72
2022/11/12 05:22:05;;;;;;;24.10;17.80;;;;;;;-143.84;100.00;45237.59;5090271;28;20449;-72
2022/11/12 05:24:34;;;;;;;26.00;17.90;;;;;;;-143.84;100.00;45222.34;5090246;28;20878;-72
2022/11/12 05:27:04;;;;;;;24.50;17.67;;;;;;;-143.84;100.00;45226.16;5090266;28;20498;-73
2022/11/12 05:29:31;;;;;;;22.97;17.20;;;;;;;-143.84;100.00;45266.16;5090037;28;20974;-72
2022/11/12 05:32:01;;;;;;;25.47;17.33;;;;;;;-143.84;100.00;45220.44;5089959;28;20478;-72
2022/11/12 05:34:28;;;;;;;22.47;17.10;;;;;;;-143.84;100.00;45233.78;5089748;28;20938;-72
2022/11/12 05:36:56;;;;;;;21.63;16.70;;;;;;;-143.84;100.00;45262.34;5089699;28;20520;-72
2022/11/12 05:39:23;;;;;;;21.30;15.80;;;;;;;-143.84;100.00;45237.59;5089921;28;20436;-73
2022/11/12 05:41:51;;;;;;;24.67;16.80;;;;;;;-143.84;100.00;45186.16;5089971;28;20501;-72
2022/11/12 05:44:20;;;;;;;21.57;16.07;;;;;;;-143.84;100.00;45237.59;5089642;28;20536;-73
2022/11/12 05:46:49;;;;;;;22.57;16.10;;;;;;;-143.84;100.00;45224.25;5089740;28;20445;-71
2022/11/12 05:49:16;;;;;;;18.73;13.37;;;;;;;-143.84;100.00;45233.78;5089830;28;20479;-73
2022/11/12 05:51:44;;;;;;;19.13;15.30;;;;;;;-143.84;100.00;45231.88;5089075;28;20447;-73
2022/11/12 05:54:11;;;;;;;22.67;16.47;;;;;;;-143.84;100.00;45229.97;5089889;28;20454;-72
2022/11/12 05:56:39;;;;;;;22.87;14.93;;;;;;;-143.84;100.00;45233.78;5088968;28;21212;-72
2022/11/12 05:59:10;;;;;;;20.67;15.20;;;;;;;-143.84;100.00;45218.53;5088874;28;21015;-72
2022/11/12 06:01:43;;;;;;;20.77;13.97;;;;;;;-143.84;100.00;45226.16;5089015;28;20443;-72
2022/11/12 06:04:12;;;;;;;19.97;15.23;;;;;;;-143.84;100.00;45222.34;5089752;28;20877;-72
2022/11/12 06:06:40;;;;;;;21.90;15.77;;;;;;;-143.84;100.00;45178.56;5089112;28;20436;-72
2022/11/12 06:09:07;;;;;;;25.30;14.77;;;;;;;-143.84;100.00;45252.81;5089393;28;20449;-72
2022/11/12 06:11:35;;;;;;;22.33;14.10;;;;;;;-143.84;100.00;45237.59;5089470;28;20437;-72
2022/11/12 06:14:03;;;;;;;20.20;15.73;;;;;;;-143.84;100.00;45235.69;5089496;28;20442;-72
2022/11/12 06:16:30;;;;;;;19.00;12.97;;;;;;;-143.84;100.00;45229.97;5114077;27;20449;-72
2022/11/12 06:18:59;;;;;;;22.90;14.40;;;;;;;-143.84;100.00;45216.63;5129528;27;20430;-72
2022/11/12 06:21:27;;;;;;;20.63;14.70;;;;;;;-143.84;100.00;45228.06;5129154;27;20458;-73
2022/11/12 06:23:56;;;;;;;32.13;16.17;;;;;;;-143.84;100.00;45226.16;5129303;27;20459;-72
2022/11/12 06:26:24;;;;;;;19.60;14.70;;;;;;;-143.84;100.00;45220.44;5129800;27;20576;-72
2022/11/12 06:28:52;;;;;;;19.47;14.03;;;;;;;-143.84;100.00;45235.69;5129944;27;20438;-72
2022/11/12 06:31:20;;;;;;;19.97;14.60;;;;;;;-143.84;100.00;45239.50;5129989;27;20442;-73
2022/11/12 06:33:48;;;;;;;20.27;14.27;;;;;;;-143.84;100.00;45218.53;5129848;27;20932;-73
2022/11/12 06:36:18;;;;;;;18.30;11.33;;;;;;;-143.84;100.00;45235.69;5129156;27;20432;-73
2022/11/12 06:38:45;;;;;;;15.53;12.93;;;;;;;-143.84;100.00;45214.72;5130174;27;20448;-73
2022/11/12 06:41:14;;;;;;;17.13;12.43;;;;;;;-143.84;100.00;45201.41;5121945;27;20862;-73
2022/11/12 06:43:41;;;;;;;15.73;12.17;;;;;;;-143.84;100.00;45224.25;5109147;28;20971;-72
2022/11/12 06:46:12;;;;;;;21.33;14.20;;;;;;;-143.84;100.00;45243.31;5108969;28;20471;-73
2022/11/12 06:48:40;;;;;;;23.67;16.77;;;;;;;-143.84;100.00;45214.72;5108686;28;20440;-73
2022/11/12 06:51:11;;;;;;;24.67;15.90;;;;;;;-143.84;100.00;45254.72;5108368;28;20436;-73
2022/11/12 06:53:39;;;;;;;25.20;16.43;;;;;;;-143.84;100.00;45216.63;5108512;28;20444;-73
2022/11/12 06:56:07;;;;;;;28.27;17.50;;;;;;;-143.84;100.00;45212.84;5108778;28;20464;-73
2022/11/12 06:58:35;;;;;;;24.80;19.30;;;;;;;-143.84;100.00;45247.09;5108955;28;20437;-73
2022/11/12 07:01:08;;;;;;;22.43;15.47;;;;;;;-143.84;100.00;45229.97;5109415;28;20453;-72
2022/11/12 07:03:35;;;;;;;24.37;17.67;;;;;;;-143.84;100.00;45210.94;5109016;28;20497;-72
2022/11/12 07:06:08;;;;;;;22.30;15.37;;;;;;;-143.84;100.00;45212.84;5108186;28;20478;-73
2022/11/12 07:08:35;;;;;;;26.73;18.63;;;;;;;-143.84;100.00;45218.53;5108858;28;20437;-73
2022/11/12 07:11:04;;;;;;;22.87;14.70;;;;;;;-143.84;100.00;45262.34;5108834;28;20435;-73
2022/11/12 07:13:32;;;;;;;25.80;16.60;;;;;;;-143.84;100.00;45222.34;5109104;28;20440;-73
2022/11/12 07:16:00;;;;;;;26.90;16.23;;;;;;;-143.84;100.00;45205.22;5109615;28;20447;-72
2022/11/12 07:18:27;;;;;;;29.93;19.00;;;;;;;-143.84;100.00;45226.16;5109034;28;20436;-72
2022/11/12 07:20:58;;;;;;;25.07;18.30;;;;;;;-143.84;100.00;45224.25;5108429;28;20449;-71
2022/11/12 07:23:26;;;;;;;21.30;16.00;;;;;;;-143.84;100.00;45258.53;5108846;28;20951;-72
2022/11/12 07:25:58;;;;;;;19.10;16.13;;;;;;;-143.84;100.00;45218.53;5108629;28;20464;-72
2022/11/12 07:28:27;;;;;;;20.93;14.60;;;;;;;-143.84;100.00;45222.34;5108929;28;20442;-73
2022/11/12 07:30:58;;;;;;;21.80;14.60;;;;;;;-143.84;100.00;45229.97;5108749;28;20434;-72
2022/11/12 07:33:26;;;;;;;21.60;14.87;;;;;;;-143.84;100.00;45212.84;5108793;28;20562;-76
2022/11/12 07:36:00;;;;;;;21.20;14.30;;;;;;;-143.84;100.00;45224.25;5109595;28;20928;-76
2022/11/12 07:38:28;;;;;;;17.00;15.20;;;;;;;-143.84;100.00;45222.34;5109824;28;20444;-76
2022/11/12 07:41:00;;;;;;;23.43;15.83;;;;;;;-143.84;100.00;45220.44;5107801;28;20494;-76
2022/11/12 07:43:29;;;;;;;20.20;14.83;;;;;;;-143.84;100.00;45222.34;5108173;28;20543;-76
2022/11/12 07:46:00;;;;;;;19.30;15.40;;;;;;;-143.84;100.00;45239.50;5108238;28;20476;-76
2022/11/12 07:48:29;;;;;;;22.13;16.70;;;;;;;-143.84;100.00;45228.06;5108328;28;20437;-76
2022/11/12 07:51:01;;;;;;;22.50;15.13;;;;;;;-143.84;100.00;45254.72;5108468;28;20784;-76
2022/11/12 07:53:28;;;;;;;22.63;16.17;;;;;;;-143.84;100.00;45239.50;5095697;28;20519;-75
2022/11/12 07:55:56;;;;;;;25.20;15.00;;;;;;;-143.84;100.00;45235.69;5092474;28;20454;-75
2022/11/12 07:58:24;;;;;;;17.57;13.73;;;;;;;-143.84;100.00;45207.13;5092247;28;20446;-75
2022/11/12 08:00:53;;;;;;;23.27;15.93;;;;;;;-143.84;100.00;45239.50;5092177;28;21346;-76
2022/11/12 08:03:20;;;;;;;18.07;14.70;;;;;;;-143.84;100.00;45222.34;5091813;28;20449;-75
2022/11/12 08:05:48;;;;;;;18.60;13.80;;;;;;;-143.84;100.00;45174.75;5091941;28;20482;-76
2022/11/12 08:08:16;;;;;;;18.97;15.20;;;;;;;-143.84;100.00;45254.72;5091230;28;20442;-76
2022/11/12 08:10:43;;;;;;;18.27;14.57;;;;;;;-143.84;100.00;45197.59;5091745;28;20439;-77
2022/11/12 08:13:10;;;;;;;19.13;14.30;;;;;;;-143.84;100.00;45235.69;5092271;28;20453;-76
2022/11/12 08:15:37;;;;;;;20.97;14.50;;;;;;;-143.84;100.00;45201.41;5092087;28;20471;-75
2022/11/12 08:18:06;;;;;;;15.47;12.47;;;;;;;-143.84;100.00;45222.34;5091453;28;20943;-75
2022/11/12 08:20:33;;;;;;;20.70;13.93;;;;;;;-143.84;100.00;45195.69;5091548;28;20869;-76
2022/11/12 08:23:01;;;;;;;16.73;13.87;;;;;;;-143.84;100.00;45212.84;5091681;28;20439;-76
2022/11/12 08:25:28;;;;;;;16.53;13.30;;;;;;;-143.84;100.00;45209.03;5092006;28;20808;-75
2022/11/12 08:27:59;;;;;;;17.73;13.80;;;;;;;-143.84;100.00;45195.69;5091576;28;20445;-75
2022/11/12 08:30:27;;;;;;;31.97;12.30;;;;;;;-143.84;100.00;45209.03;5091475;28;20990;-76
2022/11/12 08:32:58;;;;;;;17.37;13.60;;;;;;;-143.84;100.00;45222.34;5096186;28;20486;-75
2022/11/12 08:35:27;;;;;;;17.87;12.47;;;;;;;-143.84;100.00;45199.50;5111952;28;20444;-75
2022/11/12 08:37:58;;;;;;;15.67;11.90;;;;;;;-143.84;100.00;45212.84;5111617;28;20524;-75
2022/11/12 08:40:26;;;;;;;14.60;13.10;;;;;;;-143.84;100.00;45214.72;5111636;28;20445;-75
2022/11/12 08:42:58;;;;;;;16.77;12.10;;;;;;;-143.84;99.71;45193.78;5111480;28;20440;-75
2022/11/12 08:45:26;;;;;;;16.07;11.90;;;;;;;-143.84;99.82;45220.44;5111530;28;20478;-75
2022/11/12 08:47:53;;;;;;;19.27;11.87;;;;;;;-143.84;100.00;45212.84;5111395;28;20773;-75
2022/11/12 08:50:21;;;;;;;18.73;10.97;;;;;;;-143.84;100.00;45228.06;5111613;28;20469;-75
2022/11/12 08:52:49;;;;;;;16.80;11.60;;;;;;;-143.84;100.00;45207.13;5111360;28;20442;-75
2022/11/12 08:55:16;;;;;;;18.67;11.90;;;;;;;-143.84;99.88;45212.84;5111220;28;20546;-75
2022/11/12 08:57:44;;;;;;;16.33;11.90;;;;;;;-143.84;99.91;45224.25;5111206;28;20912;-75
2022/11/12 09:00:13;;;;;;;12.40;10.53;;;;;;;-143.84;100.00;45218.53;5111414;28;20442;-75
2022/11/12 09:02:40;;;;;;;14.97;10.93;;;;;;;-143.84;99.97;45247.09;5110307;28;20799;-73
2022/11/12 09:05:08;;;;;;;17.07;10.70;;;;;;;-143.84;99.42;45220.44;5109648;27;20500;-72
2022/11/12 09:07:35;;;;;;;16.20;13.10;;;;;;;-143.84;99.87;45228.06;5110353;28;20437;-72
2022/11/12 09:10:05;;;;;;;15.40;12.43;;;;;;;-143.84;100.00;45186.16;5110447;28;20981;-72
2022/11/12 09:12:33;;;;;;;12.03;10.83;;;;;;;-143.84;99.94;45201.41;5093112;28;20451;-72
2022/11/12 09:15:00;;;;;;;14.20;9.70;;;;;;;-143.84;98.68;45184.25;5111215;28;21299;-72
2022/11/12 09:17:28;;;;;;;13.67;10.80;;;;;;;-143.84;98.01;45205.22;5110723;28;20446;-72
2022/11/12 09:19:55;;;;;;;17.70;10.80;;;;;;;-143.84;95.83;45174.75;5110575;28;20789;-72
2022/11/12 09:22:22;;;;;;;16.93;9.80;;;;;;;-143.84;94.37;45197.59;5110262;28;21022;-72
2022/11/12 09:24:49;;;;;;;9.40;8.33;;;;;;;-143.84;91.76;45207.13;5110545;28;20955;-72
2022/11/12 09:27:18;;;;;;;11.37;9.37;;;;;;;-143.84;90.67;45201.41;5110629;28;20598;-72
2022/11/12 09:29:45;;;;;;;8.10;6.87;;;;;;;-143.84;88.61;45172.84;5110232;28;20508;-72
2022/11/12 09:32:12;;;;;;;9.47;7.33;;;;;;;-143.84;87.88;45186.16;5110042;28;20465;-72
2022/11/12 09:34:39;;;;;;;9.40;8.40;;;;;;;-143.84;85.31;45186.16;5109422;28;20533;-72
2022/11/12 09:37:06;;;;;;;11.43;7.00;;;;;;;-143.84;83.32;45167.13;5110538;28;20456;-73
2022/11/12 09:39:33;;;;;;;7.27;6.53;;;;;;;-143.84;83.28;45151.91;5110232;28;20433;-73
2022/11/12 09:42:07;;;;;;;7.40;6.67;;;;;;;-143.84;80.39;45184.25;5110308;28;20431;-72
2022/11/12 09:44:37;;;;;;;12.00;5.83;;;;;;;-143.84;78.51;45159.50;5110017;28;20435;-73
2022/11/12 09:47:12;;;;;;;6.60;5.53;;;;;;;-143.84;76.16;45163.31;5110430;28;20528;-73
2022/11/12 09:49:44;;;;;;;5.67;5.17;;;;;;;-143.84;70.90;45155.69;5110653;28;20454;-75
2022/11/12 09:52:17;;;;;;;7.40;6.00;;;;;;;-143.84;72.16;45151.91;5110980;28;20442;-75
2022/11/12 09:54:44;;;;;;;7.67;6.67;;;;;;;-143.84;72.93;45157.59;5110050;28;20439;-72
2022/11/12 09:57:12;;;;;;;5.80;5.20;;;;;;;-143.84;69.12;45148.09;5109437;28;20461;-74
2022/11/12 09:59:42;;;;;;;7.00;5.70;;;;;;;-143.84;70.10;45132.84;5109745;28;20473;-74
2022/11/12 10:02:26;;;;;;;6.40;5.80;;;;;;;-143.84;68.45;45132.84;5109648;28;20450;-74
2022/11/12 10:05:18;;;;;;;6.47;4.57;;;;;;;-143.84;65.33;45132.84;5110055;28;20849;-75
2022/11/12 10:08:02;;;;;;;10.33;7.37;;;;;;;-143.84;67.22;45144.28;5109881;28;20924;-75
2022/11/12 10:10:38;;;;;;;9.63;8.07;;;;;;;-143.84;68.02;45136.66;5109880;28;20983;-76
2022/11/12 10:13:19;;;;;;;9.63;7.60;;;;;;;-143.84;69.30;45136.66;5110253;28;20891;-75
2022/11/12 10:19:34;;;;;;;10.30;8.10;;;;;;;-143.84;69.90;45142.38;5109075;28;20939;-73
2022/11/12 10:22:12;;;;;;;18.10;8.90;;;;;;;-143.84;71.26;45150.00;5109722;28;20474;-74
2022/11/12 10:24:41;;;;;;;14.70;8.90;;;;;;;-143.84;71.73;45157.59;5109705;28;20862;-73
2022/11/12 10:27:16;;;;;;;13.93;8.87;;;;;;;-143.84;73.36;45151.91;5109364;28;20463;-77
2022/11/12 10:29:52;;;;;;;11.13;8.17;;;;;;;-143.84;74.48;45170.94;5109652;28;20896;-75
2022/11/12 10:32:20;;;;;;;11.23;8.23;;;;;;;-143.84;74.48;45155.69;5109008;28;20479;-72
2022/11/12 10:34:47;;;;;;;14.33;9.03;;;;;;;-143.84;73.40;45146.19;5089029;28;20463;-75
2022/11/12 10:37:24;;;;;;;16.40;9.40;;;;;;;-143.84;72.19;45142.38;5089243;28;20432;-75
2022/11/12 10:39:52;;;;;;;10.23;8.53;;;;;;;-143.84;73.04;45161.41;5090013;28;20631;-70
2022/11/12 10:42:21;;;;;;;11.70;8.30;;;;;;;-143.84;73.04;45150.00;5088549;28;21023;-70
2022/11/12 10:44:49;;;;;;;11.17;8.33;;;;;;;-143.84;70.67;45159.50;5089085;28;20456;-70
2022/11/12 10:47:31;;;;;;;11.53;7.80;;;;;;;-143.84;70.15;45148.09;5087442;28;20479;-70
2022/11/12 10:50:15;;;;;;;10.23;7.90;;;;;;;-143.84;70.48;45151.91;5088545;28;21334;-70
2022/11/12 10:52:54;;;;;;;11.90;8.00;;;;;;;-143.84;69.18;45150.00;5068465;28;20445;-75
2022/11/12 10:55:23;;;;;;;7.10;6.40;;;;;;;-143.84;68.22;45146.19;5068392;28;20429;-71
2022/11/12 10:58:18;;;;;;;11.43;8.50;;;;;;;-143.84;69.30;45148.09;5068621;28;20917;-75
2022/11/12 11:01:00;;;;;;;11.73;8.60;;;;;;;-143.84;68.26;45132.84;5068930;28;20445;-71
2022/11/12 11:03:33;;;;;;;13.67;9.20;;;;;;;-143.84;69.04;45138.56;5068635;28;20432;-71
2022/11/12 11:06:03;;;;;;;17.67;9.13;;;;;;;-143.84;69.90;45140.47;5068435;28;20534;-75
2022/11/12 11:08:39;;;;;;;18.97;10.57;;;;;;;-143.84;70.74;45153.81;5068816;28;20429;-75
2022/11/12 11:11:19;;;;;;;18.47;11.50;;;;;;;-143.84;71.76;45174.75;5068507;28;20514;-74
2022/11/12 11:13:47;;;;;;;18.03;12.20;;;;;;;-143.84;72.78;45178.56;5087442;28;20434;-70
2022/11/12 11:16:17;;;;;;;15.13;12.17;;;;;;;-143.84;74.02;45159.50;5087909;28;20436;-76
2022/11/12 11:18:52;;;;;;;15.70;11.20;;;;;;;-143.84;75.28;45151.91;5088909;28;20448;-77
2022/11/12 11:21:35;;;;;;;14.07;11.63;;;;;;;-143.84;73.93;45150.00;5089487;28;20965;-75
2022/11/12 11:24:19;;;;;;;17.87;11.60;;;;;;;-143.84;74.53;45201.41;5100546;28;20944;-72
2022/11/12 11:26:56;;;;;;;15.57;12.20;;;;;;;-143.84;76.29;45163.31;5107994;28;20479;-72
2022/11/12 11:29:56;;;;;;;17.77;13.10;;;;;;;-143.84;77.00;45167.13;5112723;28;21117;-72